createdAt,value
2023-09-15T00:01:41.370Z,102304.63
2023-09-15T00:04:08.904Z,102297.91
2023-09-15T00:06:37.133Z,102301.13
2023-09-15T00:09:08.455Z,102294.59
2023-09-15T00:11:41.374Z,102301.81
2023-09-15T00:14:12.430Z,102294.72
2023-09-15T00:16:44.231Z,102305.78
2023-09-15T00:19:17.765Z,102292.06
2023-09-15T00:21:45.912Z,102291.34
2023-09-15T00:24:12.484Z,102296.13
2023-09-15T00:26:39.807Z,102295.19
2023-09-15T00:29:06.977Z,102295.03
2023-09-15T00:31:34.134Z,102292.03
2023-09-15T00:34:00.757Z,102292.25
2023-09-15T00:36:27.383Z,102289.00
2023-09-15T00:38:54.942Z,102282.16
2023-09-15T00:41:21.940Z,102298.94
2023-09-15T00:43:48.771Z,102290.63
2023-09-15T00:46:15.731Z,102291.22
2023-09-15T00:48:42.404Z,102286.16
2023-09-15T00:51:09.198Z,102285.19
2023-09-15T00:53:38.487Z,102285.31
2023-09-15T00:56:06.762Z,102293.13
2023-09-15T00:58:33.547Z,102279.91
2023-09-15T01:01:01.615Z,102287.84
2023-09-15T01:03:31.382Z,102282.78
2023-09-15T01:05:58.140Z,102283.84
2023-09-15T01:08:25.021Z,102278.78
2023-09-15T01:10:51.803Z,102271.63
2023-09-15T01:13:18.634Z,102276.16
2023-09-15T01:16:06.133Z,102273.13
2023-09-15T01:19:07.314Z,102265.59
2023-09-15T01:21:58.507Z,102272.56
2023-09-15T01:25:00.478Z,102268.34
2023-09-15T01:27:52.312Z,102265.09
2023-09-15T01:30:20.637Z,102262.47
2023-09-15T01:32:51.038Z,102258.16
2023-09-15T01:35:17.640Z,102257.41
2023-09-15T01:37:44.159Z,102266.06
2023-09-15T01:40:11.239Z,102262.34
2023-09-15T01:42:41.310Z,102265.00
2023-09-15T01:45:08.551Z,102264.03
2023-09-15T01:47:37.980Z,102263.16
2023-09-15T01:50:06.324Z,102260.53
2023-09-15T01:52:35.025Z,102262.47
2023-09-15T01:55:04.248Z,102250.34
2023-09-15T01:57:31.013Z,102255.63
2023-09-15T02:00:00.643Z,102254.25
2023-09-15T02:02:27.817Z,102255.72
2023-09-15T02:04:54.415Z,102253.94
2023-09-15T02:07:21.387Z,102257.97
2023-09-15T02:09:47.986Z,102250.38
2023-09-15T02:12:14.530Z,102255.03
2023-09-15T02:14:42.100Z,102253.63
2023-09-15T02:17:09.062Z,102256.72
2023-09-15T02:19:35.745Z,102256.28
2023-09-15T02:22:02.336Z,102251.75
2023-09-15T02:24:29.437Z,102252.00
2023-09-15T02:26:57.997Z,102249.44
2023-09-15T02:29:24.499Z,102249.59
2023-09-15T02:31:52.280Z,102251.56
2023-09-15T02:34:19.650Z,102255.16
2023-09-15T02:36:46.126Z,102247.03
2023-09-15T02:39:12.688Z,102250.16
2023-09-15T02:41:39.298Z,102240.69
2023-09-15T02:44:09.809Z,102249.63
2023-09-15T02:46:37.272Z,102244.22
2023-09-15T02:49:04.443Z,102248.09
2023-09-15T02:51:33.321Z,102242.91
2023-09-15T02:54:01.292Z,102242.91
2023-09-15T02:56:28.730Z,102240.28
2023-09-15T02:58:56.889Z,102241.25
2023-09-15T03:01:23.534Z,102235.22
2023-09-15T03:03:51.164Z,102232.34
2023-09-15T03:06:18.466Z,102231.38
2023-09-15T03:08:45.316Z,102229.09
2023-09-15T03:11:16.036Z,102229.22
2023-09-15T03:13:42.704Z,102231.41
2023-09-15T03:16:11.078Z,102226.34
2023-09-15T03:18:38.606Z,102228.53
2023-09-15T03:21:06.591Z,102224.22
2023-09-15T03:23:33.193Z,102223.81
2023-09-15T03:26:04.167Z,102222.91
2023-09-15T03:28:36.338Z,102221.06
2023-09-15T03:31:06.889Z,102228.28
2023-09-15T03:33:34.331Z,102226.00
2023-09-15T03:36:01.379Z,102217.22
2023-09-15T03:38:28.098Z,102220.13
2023-09-15T03:40:54.640Z,102227.31
2023-09-15T03:43:21.247Z,102221.78
2023-09-15T03:45:49.030Z,102223.94
2023-09-15T03:48:16.904Z,102217.78
2023-09-15T03:50:43.873Z,102216.69
2023-09-15T03:53:12.205Z,102216.91
2023-09-15T03:55:39.105Z,102216.06
2023-09-15T03:58:08.656Z,102228.63
2023-09-15T04:00:35.381Z,102213.22
2023-09-15T04:03:03.156Z,102218.72
2023-09-15T04:05:30.113Z,102221.09
2023-09-15T04:07:57.549Z,102215.81
2023-09-15T04:10:26.353Z,102219.97
2023-09-15T04:12:52.932Z,102214.06
2023-09-15T04:15:19.470Z,102215.25
2023-09-15T04:17:46.445Z,102212.81
2023-09-15T04:20:13.341Z,102204.91
2023-09-15T04:22:42.212Z,102209.69
2023-09-15T04:25:09.430Z,102213.69
2023-09-15T04:27:36.312Z,102209.69
2023-09-15T04:30:04.802Z,102214.88
2023-09-15T04:32:37.918Z,102214.97
2023-09-15T04:35:06.794Z,102213.72
2023-09-15T04:37:34.869Z,102212.06
2023-09-15T04:40:03.792Z,102219.66
2023-09-15T04:42:30.557Z,102216.25
2023-09-15T04:44:57.280Z,102219.34
2023-09-15T04:47:37.680Z,102213.13
2023-09-15T04:50:15.598Z,102214.81
2023-09-15T04:52:42.353Z,102216.84
2023-09-15T04:55:09.719Z,102211.94
2023-09-15T04:57:36.715Z,102219.44
2023-09-15T05:00:05.956Z,102218.78
2023-09-15T05:02:35.385Z,102223.66
2023-09-15T05:05:01.992Z,102220.28
2023-09-15T05:07:28.602Z,102223.75
2023-09-15T05:09:55.250Z,102221.09
2023-09-15T05:12:22.470Z,102225.63
2023-09-15T05:14:49.076Z,102219.19
2023-09-15T05:17:16.408Z,102230.38
2023-09-15T05:19:43.264Z,102221.72
2023-09-15T05:22:09.793Z,102226.28
2023-09-15T05:24:36.425Z,102225.50
2023-09-15T05:27:02.970Z,102228.34
2023-09-15T05:29:29.753Z,102222.44
2023-09-15T05:31:56.435Z,102216.69
2023-09-15T05:34:23.145Z,102219.34
2023-09-15T05:36:50.946Z,102215.88
2023-09-15T05:39:17.817Z,102221.03
2023-09-15T05:41:44.298Z,102218.28
2023-09-15T05:44:10.792Z,102219.75
2023-09-15T05:46:37.379Z,102216.03
2023-09-15T05:49:04.140Z,102216.16
2023-09-15T05:51:30.683Z,102215.75
2023-09-15T05:53:57.230Z,102223.16
2023-09-15T05:56:23.702Z,102219.97
2023-09-15T05:58:50.495Z,102222.13
2023-09-15T06:01:19.659Z,102225.44
2023-09-15T06:03:46.900Z,102223.44
2023-09-15T06:06:13.507Z,102228.44
2023-09-15T06:08:40.079Z,102222.72
2023-09-15T06:11:07.934Z,102227.06
2023-09-15T06:13:37.024Z,102223.13
2023-09-15T06:16:05.279Z,102230.44
2023-09-15T06:18:32.357Z,102231.78
2023-09-15T06:20:59.054Z,102230.56
2023-09-15T06:23:25.944Z,102226.09
2023-09-15T06:25:52.805Z,102228.94
2023-09-15T06:28:22.054Z,102229.88
2023-09-15T06:30:49.384Z,102223.81
2023-09-15T06:33:16.056Z,102237.13
2023-09-15T06:35:42.723Z,102232.31
2023-09-15T06:38:11.892Z,102228.53
2023-09-15T06:40:38.498Z,102229.31
2023-09-15T06:43:07.457Z,102231.69
2023-09-15T06:45:34.650Z,102222.66
2023-09-15T06:48:01.234Z,102226.00
2023-09-15T06:50:27.818Z,102228.97
2023-09-15T06:52:54.407Z,102225.44
2023-09-15T06:55:21.187Z,102228.31
2023-09-15T06:57:47.929Z,102235.03
2023-09-15T07:00:15.902Z,102230.88
2023-09-15T07:02:42.473Z,102234.09
2023-09-15T07:05:09.282Z,102232.59
2023-09-15T07:07:35.945Z,102228.31
2023-09-15T07:10:02.637Z,102227.09
2023-09-15T07:12:29.242Z,102221.81
2023-09-15T07:14:55.863Z,102223.81
2023-09-15T07:17:23.285Z,102215.03
2023-09-15T07:19:49.850Z,102215.66
2023-09-15T07:22:16.744Z,102218.88
2023-09-15T07:24:43.470Z,102221.16
2023-09-15T07:27:10.700Z,102217.53
2023-09-15T07:29:38.579Z,102211.84
2023-09-15T07:32:06.124Z,102212.00
2023-09-15T07:34:32.853Z,102211.38
2023-09-15T07:37:01.533Z,102208.00
2023-09-15T07:39:30.534Z,102211.00
2023-09-15T07:41:57.053Z,102212.44
2023-09-15T07:44:23.760Z,102207.34
2023-09-15T07:46:50.444Z,102213.66
2023-09-15T07:49:17.238Z,102209.59
2023-09-15T07:51:44.811Z,102211.00
2023-09-15T07:54:11.324Z,102212.91
2023-09-15T07:56:38.077Z,102207.34
2023-09-15T07:59:04.730Z,102209.97
2023-09-15T08:01:31.351Z,102215.72
2023-09-15T08:03:58.294Z,102208.16
2023-09-15T08:06:26.926Z,102216.53
2023-09-15T08:08:53.883Z,102216.09
2023-09-15T08:11:20.350Z,102215.09
2023-09-15T08:13:47.223Z,102218.13
2023-09-15T08:16:14.064Z,102217.91
2023-09-15T08:18:41.227Z,102214.50
2023-09-15T08:21:07.716Z,102217.00
2023-09-15T08:23:34.600Z,102210.31
2023-09-15T08:26:02.349Z,102214.38
2023-09-15T08:28:29.285Z,102214.09
2023-09-15T08:30:55.908Z,102212.00
2023-09-15T08:33:22.423Z,102199.91
2023-09-15T08:35:48.936Z,102200.81
2023-09-15T08:38:15.490Z,102197.34
2023-09-15T08:40:55.342Z,102194.41
2023-09-15T08:43:23.114Z,102202.63
2023-09-15T08:45:50.681Z,102198.66
2023-09-15T08:48:22.922Z,102194.19
2023-09-15T08:50:52.542Z,102200.59
2023-09-15T08:53:20.605Z,102202.63
2023-09-15T08:55:47.800Z,102195.72
2023-09-15T08:58:15.331Z,102196.78
2023-09-15T09:00:48.364Z,102191.00
2023-09-15T09:03:16.024Z,102192.38
2023-09-15T09:05:47.585Z,102190.44
2023-09-15T09:08:14.633Z,102191.00
2023-09-15T09:10:41.332Z,102187.28
2023-09-15T09:13:07.849Z,102196.47
2023-09-15T09:15:34.728Z,102190.19
2023-09-15T09:18:01.438Z,102187.56
2023-09-15T09:20:29.106Z,102188.47
2023-09-15T09:22:56.002Z,102187.31
2023-09-15T09:25:29.845Z,102186.69
2023-09-15T09:27:57.054Z,102183.41
2023-09-15T09:30:26.179Z,102182.44
2023-09-15T09:32:52.749Z,102176.13
2023-09-15T09:35:19.294Z,102180.81
2023-09-15T09:37:45.904Z,102178.19
2023-09-15T09:40:12.733Z,102174.91
2023-09-15T09:42:40.177Z,102174.28
2023-09-15T09:45:07.287Z,102168.63
2023-09-15T09:47:34.017Z,102164.97
2023-09-15T09:50:06.165Z,102156.81
2023-09-15T09:52:33.051Z,102158.69
2023-09-15T09:55:04.818Z,102148.75
2023-09-15T09:57:32.062Z,102152.13
2023-09-15T09:59:58.711Z,102143.25
2023-09-15T10:02:25.375Z,102143.13
2023-09-15T10:04:51.929Z,102137.97
2023-09-15T10:07:18.578Z,102137.47
2023-09-15T10:09:47.093Z,102132.97
2023-09-15T10:12:15.010Z,102140.66
2023-09-15T10:14:41.893Z,102132.16
2023-09-15T10:17:08.882Z,102134.16
2023-09-15T10:19:35.666Z,102132.16
2023-09-15T10:22:02.807Z,102131.47
2023-09-15T10:24:30.207Z,102117.78
2023-09-15T10:26:56.807Z,102118.94
2023-09-15T10:29:31.599Z,102119.16
2023-09-15T10:32:00.287Z,102113.31
2023-09-15T10:34:26.953Z,102117.13
2023-09-15T10:36:54.078Z,102113.75
2023-09-15T10:39:20.692Z,102115.44
2023-09-15T10:41:47.363Z,102116.88
2023-09-15T10:44:14.526Z,102099.88
2023-09-15T10:46:43.373Z,102094.50
2023-09-15T10:49:18.254Z,102089.66
2023-09-15T10:51:59.673Z,102084.66
2023-09-15T10:54:30.910Z,102078.31
2023-09-15T10:56:58.480Z,102067.16
2023-09-15T10:59:26.276Z,102061.03
2023-09-15T11:01:53.413Z,102048.66
2023-09-15T11:04:22.311Z,102036.16
2023-09-15T11:06:52.868Z,102052.03
2023-09-15T11:09:21.280Z,102014.03
2023-09-15T11:11:52.573Z,102005.78
2023-09-15T11:14:25.650Z,101999.75
2023-09-15T11:16:55.692Z,102008.78
2023-09-15T11:19:25.297Z,101997.03
2023-09-15T11:21:51.942Z,101984.34
2023-09-15T11:24:19.565Z,101970.44
2023-09-15T11:26:48.428Z,101952.78
2023-09-15T11:29:16.894Z,101954.47
2023-09-15T11:31:45.104Z,101939.09
2023-09-15T11:34:17.122Z,101943.66
2023-09-15T11:36:44.117Z,101954.88
2023-09-15T11:39:13.874Z,101941.13
2023-09-15T11:41:46.081Z,101914.94
2023-09-15T11:44:12.918Z,101928.78
2023-09-15T11:46:40.574Z,101934.59
2023-09-15T11:49:07.621Z,101922.56
2023-09-15T11:51:36.144Z,101918.31
2023-09-15T11:54:04.742Z,101910.78
2023-09-15T11:56:32.539Z,101910.13
2023-09-15T11:59:00.258Z,101900.63
2023-09-15T12:01:29.107Z,101889.75
2023-09-15T12:03:55.866Z,101889.69
2023-09-15T12:06:22.543Z,101882.31
2023-09-15T12:08:51.440Z,101888.59
2023-09-15T12:11:19.294Z,101872.09
2023-09-15T12:13:53.028Z,101883.69
2023-09-15T12:16:24.860Z,101867.31
2023-09-15T12:18:54.450Z,101872.19
2023-09-15T12:21:25.832Z,101858.97
2023-09-15T12:23:55.444Z,101863.00
2023-09-15T12:26:26.585Z,101866.25
2023-09-15T12:28:55.458Z,101852.50
2023-09-15T12:31:22.419Z,101864.69
2023-09-15T12:33:54.669Z,101863.75
2023-09-15T12:36:22.651Z,101864.47
2023-09-15T12:38:52.357Z,101857.81
2023-09-15T12:41:18.825Z,101849.59
2023-09-15T12:43:45.595Z,101858.19
2023-09-15T12:46:12.436Z,101843.56
2023-09-15T12:48:39.222Z,101844.41
2023-09-15T12:51:05.913Z,101831.22
2023-09-15T12:53:32.648Z,101828.00
2023-09-15T12:56:01.427Z,101828.38
2023-09-15T12:58:28.199Z,101834.53
2023-09-15T13:00:54.764Z,101821.13
2023-09-15T13:03:23.401Z,101822.53
2023-09-15T13:05:50.404Z,101813.38
2023-09-15T13:08:17.708Z,101804.06
2023-09-15T13:10:44.326Z,101801.22
2023-09-15T13:13:12.008Z,101803.78
2023-09-15T13:15:38.650Z,101790.94
2023-09-15T13:18:05.531Z,101785.19
2023-09-15T13:20:32.291Z,101790.00
2023-09-15T13:22:58.737Z,101761.47
2023-09-15T13:25:25.316Z,101769.00
2023-09-15T13:27:51.789Z,101779.72
2023-09-15T13:30:19.102Z,101788.78
2023-09-15T13:32:45.738Z,101784.06
2023-09-15T13:35:14.086Z,101771.69
2023-09-15T13:37:41.307Z,101777.50
2023-09-15T13:40:08.189Z,101769.28
2023-09-15T13:42:36.479Z,101763.72
2023-09-15T13:45:05.248Z,101763.25
2023-09-15T13:47:36.933Z,101747.56
2023-09-15T13:50:08.893Z,101755.66
2023-09-15T13:52:35.505Z,101758.41
2023-09-15T13:55:02.350Z,101754.38
2023-09-15T13:57:30.156Z,101765.41
2023-09-15T13:59:57.561Z,101757.00
2023-09-15T14:02:27.697Z,101753.00
2023-09-15T14:04:55.458Z,101749.28
2023-09-15T14:07:22.191Z,101745.63
2023-09-15T14:09:48.752Z,101744.69
2023-09-15T14:12:15.918Z,101751.25
2023-09-15T14:14:42.578Z,101750.16
2023-09-15T14:17:09.290Z,101751.91
2023-09-15T14:19:36.262Z,101741.09
2023-09-15T14:22:06.605Z,101739.56
2023-09-15T14:24:36.149Z,101733.75
2023-09-15T14:27:03.905Z,101733.16
2023-09-15T14:29:31.372Z,101736.81
2023-09-15T14:32:01.155Z,101739.78
2023-09-15T14:34:28.300Z,101735.69
2023-09-15T14:36:54.794Z,101735.28
2023-09-15T14:39:21.339Z,101733.41
2023-09-15T14:41:48.777Z,101736.47
2023-09-15T14:44:20.555Z,101730.81
2023-09-15T14:46:48.383Z,101728.03
2023-09-15T14:49:15.759Z,101722.31
2023-09-15T14:51:42.777Z,101712.66
2023-09-15T14:54:09.568Z,101720.66
2023-09-15T14:56:36.843Z,101711.28
2023-09-15T14:59:03.647Z,101703.38
2023-09-15T15:01:30.234Z,101711.50
2023-09-15T15:03:57.090Z,101703.72
2023-09-15T15:06:23.631Z,101701.47
2023-09-15T15:08:50.571Z,101714.94
2023-09-15T15:11:17.431Z,101708.75
2023-09-15T15:13:44.017Z,101692.47
2023-09-15T15:16:12.285Z,101697.22
2023-09-15T15:18:39.338Z,101684.28
2023-09-15T15:21:05.866Z,101689.13
2023-09-15T15:23:32.446Z,101703.25
2023-09-15T15:26:05.018Z,101704.25
2023-09-15T15:28:32.245Z,101685.59
2023-09-15T15:30:58.920Z,101701.50
2023-09-15T15:33:25.921Z,101694.84
2023-09-15T15:36:02.736Z,101692.97
2023-09-15T15:38:29.622Z,101697.47
2023-09-15T15:41:04.135Z,101691.38
2023-09-15T15:43:31.510Z,101692.69
2023-09-15T15:46:00.484Z,101692.50
2023-09-15T15:48:29.798Z,101697.13
2023-09-15T15:50:56.818Z,101684.16
2023-09-15T15:53:23.458Z,101685.84
2023-09-15T15:55:51.045Z,101694.44
2023-09-15T15:58:17.975Z,101671.97
2023-09-15T16:00:45.768Z,101666.53
2023-09-15T16:03:12.472Z,101681.59
2023-09-15T16:05:41.068Z,101677.94
2023-09-15T16:08:07.906Z,101673.91
2023-09-15T16:10:35.089Z,101665.34
2023-09-15T16:13:02.483Z,101660.56
2023-09-15T16:15:29.378Z,101645.59
2023-09-15T16:17:58.724Z,101655.75
2023-09-15T16:20:25.286Z,101665.44
2023-09-15T16:22:51.816Z,101661.75
2023-09-15T16:25:18.296Z,101666.94
2023-09-15T16:27:44.805Z,101682.25
2023-09-15T16:30:11.562Z,101683.47
2023-09-15T16:32:38.491Z,101699.16
2023-09-15T16:35:05.423Z,101703.78
2023-09-15T16:37:32.071Z,101700.63
2023-09-15T16:39:58.929Z,101699.88
2023-09-15T16:42:25.624Z,101710.09
2023-09-15T16:44:52.238Z,101705.13
2023-09-15T16:47:20.649Z,101714.88
2023-09-15T16:49:47.344Z,101716.28
2023-09-15T16:52:13.846Z,101720.47
2023-09-15T16:54:40.370Z,101725.22
2023-09-15T16:57:06.891Z,101737.03
2023-09-15T16:59:33.785Z,101728.94
2023-09-15T17:02:01.449Z,101741.38
2023-09-15T17:04:28.193Z,101751.09
2023-09-15T17:06:54.900Z,101750.25
2023-09-15T17:09:21.972Z,101752.53
2023-09-15T17:11:48.497Z,101753.28
2023-09-15T17:14:15.042Z,101751.78
2023-09-15T17:16:41.670Z,101762.75
2023-09-15T17:19:08.317Z,101757.16
2023-09-15T17:21:35.006Z,101772.44
2023-09-15T17:24:01.578Z,101767.22
2023-09-15T17:26:41.969Z,101770.88
2023-09-15T17:29:08.463Z,101779.53
2023-09-15T17:31:34.951Z,101795.06
2023-09-15T17:34:03.330Z,101801.06
2023-09-15T17:36:30.122Z,101818.69
2023-09-15T17:38:58.506Z,101825.00
2023-09-15T17:41:25.646Z,101815.88
2023-09-15T17:43:52.129Z,101836.09
2023-09-15T17:46:18.667Z,101838.06
2023-09-15T17:48:45.171Z,101840.69
2023-09-15T17:51:11.698Z,101851.06
2023-09-15T17:53:38.163Z,101851.19
2023-09-15T17:56:04.752Z,101859.91
2023-09-15T17:58:31.299Z,101865.56
2023-09-15T18:00:57.942Z,101858.91
2023-09-15T18:03:24.479Z,101856.84
2023-09-15T18:05:51.007Z,101852.38
2023-09-15T18:08:17.488Z,101856.47
2023-09-15T18:10:44.050Z,101848.59
2023-09-15T18:13:10.608Z,101850.84
2023-09-15T18:15:37.370Z,101858.13
2023-09-15T18:18:04.184Z,101849.28
2023-09-15T18:20:30.774Z,101856.66
2023-09-15T18:22:57.248Z,101856.69
2023-09-15T18:25:23.886Z,101855.03
2023-09-15T18:27:50.421Z,101856.41
2023-09-15T18:30:17.194Z,101855.13
2023-09-15T18:32:44.053Z,101856.22
2023-09-15T18:35:11.215Z,101867.19
2023-09-15T18:37:37.726Z,101869.31
2023-09-15T18:40:04.691Z,101860.72
2023-09-15T18:42:31.464Z,101860.78
2023-09-15T18:44:57.930Z,101868.53
2023-09-15T18:47:24.631Z,101872.91
2023-09-15T18:49:51.159Z,101865.31
2023-09-15T18:52:17.729Z,101866.59
2023-09-15T18:54:47.491Z,101866.72
2023-09-15T18:57:14.047Z,101855.88
2023-09-15T18:59:40.536Z,101865.97
2023-09-15T19:02:07.220Z,101863.13
2023-09-15T19:04:33.732Z,101867.13
2023-09-15T19:07:00.302Z,101863.19
2023-09-15T19:09:27.181Z,101863.53
2023-09-15T19:11:54.246Z,101859.22
2023-09-15T19:14:20.791Z,101854.56
2023-09-15T19:16:48.622Z,101860.09
2023-09-15T19:19:15.231Z,101856.13
2023-09-15T19:21:41.951Z,101862.66
2023-09-15T19:24:08.542Z,101859.13
2023-09-15T19:26:35.056Z,101856.31
2023-09-15T19:29:01.695Z,101852.34
2023-09-15T19:31:28.397Z,101855.84
2023-09-15T19:33:55.180Z,101848.19
2023-09-15T19:36:21.876Z,101851.91
2023-09-15T19:38:48.839Z,101857.56
2023-09-15T19:41:16.563Z,101854.38
2023-09-15T19:43:43.107Z,101852.38
2023-09-15T19:46:13.563Z,101846.38
2023-09-15T19:48:41.023Z,101846.69
2023-09-15T19:51:07.509Z,101848.56
2023-09-15T19:53:33.994Z,101850.41
2023-09-15T19:56:04.668Z,101848.91
2023-09-15T19:58:31.202Z,101849.53
2023-09-15T20:00:57.930Z,101848.06
2023-09-15T20:03:24.597Z,101848.75
2023-09-15T20:05:51.221Z,101853.59
2023-09-15T20:08:17.760Z,101853.59
2023-09-15T20:10:44.280Z,101852.75
2023-09-15T20:13:10.788Z,101850.06
2023-09-15T20:15:37.360Z,101847.75
2023-09-15T20:18:04.209Z,101845.41
2023-09-15T20:20:31.508Z,101854.59
2023-09-15T20:22:58.533Z,101851.75
2023-09-15T20:25:27.702Z,101852.91
2023-09-15T20:27:54.706Z,101851.59
2023-09-15T20:30:21.202Z,101848.75
2023-09-15T20:32:47.720Z,101843.91
2023-09-15T20:35:14.606Z,101839.59
2023-09-15T20:37:41.366Z,101830.41
2023-09-15T20:40:08.947Z,101827.56
2023-09-15T20:42:35.424Z,101832.91
2023-09-15T20:45:04.629Z,101831.75
2023-09-15T20:47:32.235Z,101835.06
2023-09-15T20:49:58.880Z,101831.59
2023-09-15T20:52:25.384Z,101827.91
2023-09-15T20:54:52.038Z,101834.75
2023-09-15T20:57:18.686Z,101824.41
2023-09-15T20:59:45.214Z,101821.06
2023-09-15T21:02:11.782Z,101820.72
2023-09-15T21:04:38.292Z,101819.41
2023-09-15T21:07:04.963Z,101815.72
2023-09-15T21:09:31.639Z,101814.22
2023-09-15T21:11:58.148Z,101808.22
2023-09-15T21:14:24.731Z,101808.91
2023-09-15T21:16:51.559Z,101809.06
2023-09-15T21:19:18.097Z,101809.72
2023-09-15T21:21:44.659Z,101812.38
2023-09-15T21:24:11.129Z,101812.03
2023-09-15T21:26:38.746Z,101810.38
2023-09-15T21:29:05.302Z,101813.91
2023-09-15T21:31:32.832Z,101820.41
2023-09-15T21:34:01.354Z,101811.72
2023-09-15T21:36:28.737Z,101823.41
2023-09-15T21:38:55.290Z,101817.91
2023-09-15T21:41:24.693Z,101814.25
2023-09-15T21:43:52.439Z,101812.06
2023-09-15T21:46:19.225Z,101811.75
2023-09-15T21:48:46.015Z,101814.41
2023-09-15T21:51:12.668Z,101821.41
2023-09-15T21:53:39.154Z,101820.72
2023-09-15T21:56:05.667Z,101824.72
2023-09-15T21:58:32.231Z,101820.03
2023-09-15T22:00:58.760Z,101820.41
2023-09-15T22:03:25.577Z,101819.38
2023-09-15T22:05:53.733Z,101822.53
2023-09-15T22:08:20.261Z,101817.22
2023-09-15T22:10:46.833Z,101818.69
2023-09-15T22:13:13.328Z,101824.03
2023-09-15T22:15:40.751Z,101810.38
2023-09-15T22:18:09.717Z,101817.22
2023-09-15T22:20:36.212Z,101815.72
2023-09-15T22:23:04.162Z,101810.06
2023-09-15T22:25:30.737Z,101805.56
2023-09-15T22:27:57.241Z,101807.72
2023-09-15T22:30:24.384Z,101802.06
2023-09-15T22:32:50.982Z,101806.38
2023-09-15T22:35:17.587Z,101807.03
2023-09-15T22:37:47.313Z,101807.03
2023-09-15T22:40:15.249Z,101795.41
2023-09-15T22:42:44.602Z,101801.06
2023-09-15T22:45:19.215Z,101802.22
2023-09-15T22:47:50.928Z,101796.56
2023-09-15T22:50:19.170Z,101794.72
2023-09-15T22:52:46.260Z,101795.06
2023-09-15T22:55:22.364Z,101800.72
2023-09-15T22:57:49.444Z,101797.06
2023-09-15T23:00:18.035Z,101795.41
2023-09-15T23:02:47.664Z,101795.41
2023-09-15T23:05:14.344Z,101789.38
2023-09-15T23:07:40.872Z,101789.75
2023-09-15T23:10:08.363Z,101791.25
2023-09-15T23:12:35.121Z,101789.22
2023-09-15T23:15:02.192Z,101790.22
2023-09-15T23:17:28.851Z,101788.38
2023-09-15T23:19:58.513Z,101784.72
2023-09-15T23:22:25.204Z,101785.22
2023-09-15T23:24:52.654Z,101792.03
2023-09-15T23:27:19.755Z,101784.72
2023-09-15T23:29:46.651Z,101784.72
2023-09-15T23:32:13.283Z,101779.72
2023-09-15T23:34:40.225Z,101776.56
2023-09-15T23:37:07.090Z,101776.41
2023-09-15T23:39:36.204Z,101776.25
2023-09-15T23:42:03.192Z,101771.41
2023-09-15T23:44:29.689Z,101782.06
2023-09-15T23:46:56.391Z,101777.06
2023-09-15T23:49:23.198Z,101770.72
2023-09-15T23:51:49.852Z,101769.06
2023-09-15T23:54:16.617Z,101771.72
2023-09-15T23:56:44.116Z,101772.56
2023-09-15T23:59:10.683Z,101771.56
